Crickhowell, United Kingdom
Current Conditions -  °F | °C
As of 4:50 PM on Tuesday 27 Jan 2015 (Local Time) from EGFF Reporting Station
Overcast Overcast  
Wind Chill: 40°   Ceiling: 2400
Heat Index: 45°   Visibility: 6mi
Dew Point: 41°   Wind: 8mph
Humidity: 87%   Direction: 270°W
Pressure: 30.27"   Gusts: NA
Location:  51.86°N, 3.14°W
Report Text: EGFF 271650Z AUTO 27007KT 9999 OVC024 07/05 Q1025
Loading
Personal Weather Stations






























Interactive Weather Map New forecast layout! Learn more

10-Day Weather Forecast

Advertisements
Track Severe Weather on mobile